createdAt,value
2023-02-23T00:00:00.244Z,9.68
2023-02-23T00:01:00.270Z,9.68
2023-02-23T00:02:00.186Z,9.68
2023-02-23T00:03:00.293Z,9.68
2023-02-23T00:04:00.198Z,9.68
2023-02-23T00:05:00.194Z,9.67
2023-02-23T00:06:00.138Z,9.68
2023-02-23T00:07:00.133Z,9.68
2023-02-23T00:08:00.136Z,9.68
2023-02-23T00:09:00.128Z,9.68
2023-02-23T00:10:00.141Z,9.68
2023-02-23T00:11:00.112Z,9.67
2023-02-23T00:12:00.102Z,9.67
2023-02-23T00:13:00.085Z,9.70
2023-02-23T00:14:00.118Z,9.67
2023-02-23T00:15:00.027Z,9.67
2023-02-23T00:16:00.006Z,9.65
2023-02-23T00:17:00.243Z,9.67
2023-02-23T00:17:59.982Z,9.67
2023-02-23T00:18:59.999Z,9.67
2023-02-23T00:20:00.008Z,9.65
2023-02-23T00:20:59.956Z,9.65
2023-02-23T00:21:59.951Z,9.63
2023-02-23T00:22:59.982Z,9.65
2023-02-23T00:23:59.905Z,9.65
2023-02-23T00:24:59.926Z,9.68
2023-02-23T00:25:59.909Z,9.65
2023-02-23T00:26:59.910Z,9.68
2023-02-23T00:27:59.887Z,9.65
2023-02-23T00:28:59.861Z,9.65
2023-02-23T00:29:59.872Z,9.65
2023-02-23T00:31:00.056Z,9.63
2023-02-23T00:31:59.919Z,9.63
2023-02-23T00:32:59.835Z,9.63
2023-02-23T00:33:59.808Z,9.62
2023-02-23T00:34:59.825Z,9.63
2023-02-23T00:35:59.745Z,9.63
2023-02-23T00:36:59.780Z,9.62
2023-02-23T00:37:59.725Z,9.60
2023-02-23T00:38:59.738Z,9.62
2023-02-23T00:39:59.734Z,9.60
2023-02-23T00:40:59.716Z,9.62
2023-02-23T00:41:59.676Z,9.63
2023-02-23T00:42:59.675Z,9.62
2023-02-23T00:43:59.691Z,9.62
2023-02-23T00:44:59.668Z,9.62
2023-02-23T00:45:59.732Z,9.62
2023-02-23T00:46:59.666Z,9.62
2023-02-23T00:47:59.623Z,9.63
2023-02-23T00:48:59.643Z,9.60
2023-02-23T00:49:59.572Z,9.63
2023-02-23T00:50:59.595Z,9.63
2023-02-23T00:51:59.595Z,9.62
2023-02-23T00:52:59.572Z,9.62
2023-02-23T00:53:59.535Z,9.62
2023-02-23T00:54:59.544Z,9.62
2023-02-23T00:55:59.531Z,9.63
2023-02-23T00:56:59.495Z,9.62
2023-02-23T00:57:59.508Z,9.62
2023-02-23T00:58:59.476Z,9.62
2023-02-23T00:59:59.474Z,9.62
2023-02-23T01:00:59.496Z,9.63
2023-02-23T01:01:59.442Z,9.63
2023-02-23T01:02:59.414Z,9.62
2023-02-23T01:03:59.406Z,9.63
2023-02-23T01:04:59.410Z,9.62
2023-02-23T01:05:59.418Z,9.62
2023-02-23T01:06:59.361Z,9.62
2023-02-23T01:07:59.350Z,9.62
2023-02-23T01:08:59.377Z,9.63
2023-02-23T01:09:59.338Z,9.60
2023-02-23T01:10:59.333Z,9.63
2023-02-23T01:11:59.278Z,9.62
2023-02-23T01:12:59.306Z,9.62
2023-02-23T01:13:59.277Z,9.60
2023-02-23T01:14:59.302Z,9.59
2023-02-23T01:15:59.283Z,9.60
2023-02-23T01:16:59.265Z,9.60
2023-02-23T01:17:59.222Z,9.59
2023-02-23T01:18:59.270Z,9.60
2023-02-23T01:19:59.201Z,9.59
2023-02-23T01:20:59.203Z,9.60
2023-02-23T01:21:59.154Z,9.59
2023-02-23T01:22:59.163Z,9.59
2023-02-23T01:23:59.123Z,9.59
2023-02-23T01:24:59.148Z,9.59
2023-02-23T01:25:59.127Z,9.58
2023-02-23T01:26:59.127Z,9.58
2023-02-23T01:27:59.087Z,9.58
2023-02-23T01:28:59.069Z,9.58
2023-02-23T01:29:59.059Z,9.58
2023-02-23T01:30:59.146Z,9.58
2023-02-23T01:31:59.119Z,9.59
2023-02-23T01:32:59.050Z,9.59
2023-02-23T01:33:59.053Z,9.59
2023-02-23T01:34:59.002Z,9.59
2023-02-23T01:35:59.013Z,9.58
2023-02-23T01:36:58.971Z,9.58
2023-02-23T01:37:58.969Z,9.59
2023-02-23T01:38:58.954Z,9.59
2023-02-23T01:39:58.952Z,9.59
2023-02-23T01:40:58.934Z,9.59
2023-02-23T01:41:58.939Z,9.59
2023-02-23T01:42:58.890Z,9.59
2023-02-23T01:43:58.867Z,9.58
2023-02-23T01:44:58.907Z,9.59
2023-02-23T01:45:58.908Z,9.58
2023-02-23T01:46:58.848Z,9.59
2023-02-23T01:47:58.847Z,9.59
2023-02-23T01:48:58.836Z,9.59
2023-02-23T01:49:58.829Z,9.58
2023-02-23T01:50:58.827Z,9.58
2023-02-23T01:51:58.794Z,9.58
2023-02-23T01:52:58.808Z,9.59
2023-02-23T01:53:58.786Z,9.58
2023-02-23T01:54:58.740Z,9.56
2023-02-23T01:55:58.756Z,9.58
2023-02-23T01:56:58.853Z,9.58
2023-02-23T01:57:58.723Z,9.56
2023-02-23T01:58:58.668Z,9.55
2023-02-23T01:59:58.705Z,9.55
2023-02-23T02:00:58.655Z,9.55
2023-02-23T02:01:58.713Z,9.53
2023-02-23T02:02:58.631Z,9.53
2023-02-23T02:03:58.645Z,9.53
2023-02-23T02:04:58.620Z,9.53
2023-02-23T02:05:58.596Z,9.53
2023-02-23T02:06:58.578Z,9.50
2023-02-23T02:07:58.585Z,9.50
2023-02-23T02:08:58.572Z,9.52
2023-02-23T02:09:58.590Z,9.50
2023-02-23T02:10:58.527Z,9.50
2023-02-23T02:12:06.121Z,9.49
2023-02-23T02:12:58.501Z,9.52
2023-02-23T02:13:58.524Z,9.52
2023-02-23T02:14:58.498Z,9.52
2023-02-23T02:15:58.553Z,9.50
2023-02-23T02:16:58.487Z,9.50
2023-02-23T02:17:58.447Z,9.50
2023-02-23T02:18:58.420Z,9.50
2023-02-23T02:19:58.418Z,9.49
2023-02-23T02:20:58.430Z,9.49
2023-02-23T02:21:58.391Z,9.49
2023-02-23T02:22:58.397Z,9.48
2023-02-23T02:23:58.398Z,9.49
2023-02-23T02:24:58.431Z,9.49
2023-02-23T02:25:58.391Z,9.49
2023-02-23T02:26:58.349Z,9.48
2023-02-23T02:27:58.314Z,9.49
2023-02-23T02:28:58.313Z,9.49
2023-02-23T02:29:58.322Z,9.50
2023-02-23T02:30:58.264Z,9.45
2023-02-23T02:31:58.402Z,9.44
2023-02-23T02:32:58.245Z,9.42
2023-02-23T02:33:58.340Z,9.41
2023-02-23T02:34:58.239Z,9.40
2023-02-23T02:35:58.208Z,9.40
2023-02-23T02:36:58.207Z,9.41
2023-02-23T02:37:58.208Z,9.40
2023-02-23T02:38:58.178Z,9.42
2023-02-23T02:39:58.161Z,9.42
2023-02-23T02:40:58.178Z,9.41
2023-02-23T02:41:58.177Z,9.42
2023-02-23T02:47:31.327Z,9.44
2023-02-23T02:48:28.456Z,9.44
2023-02-23T02:49:28.428Z,9.42
2023-02-23T02:50:30.232Z,9.42
2023-02-23T02:51:28.431Z,9.42
2023-02-23T02:52:28.432Z,9.42
2023-02-23T02:53:28.378Z,9.42
2023-02-23T02:54:28.352Z,9.42
2023-02-23T02:55:28.350Z,9.42
2023-02-23T02:56:28.349Z,9.42
2023-02-23T02:57:28.358Z,9.42
2023-02-23T02:58:28.292Z,9.42
2023-02-23T02:59:28.295Z,9.42
2023-02-23T03:00:28.282Z,9.44
2023-02-23T03:01:28.270Z,9.41
2023-02-23T03:02:28.326Z,9.42
2023-02-23T03:03:28.222Z,9.41
2023-02-23T03:04:28.231Z,9.41
2023-02-23T03:05:28.270Z,9.42
2023-02-23T03:06:28.205Z,9.42
2023-02-23T03:07:28.192Z,9.41
2023-02-23T03:08:28.200Z,9.41
2023-02-23T03:09:28.231Z,9.40
2023-02-23T03:10:28.182Z,9.40
2023-02-23T03:11:28.129Z,9.40
2023-02-23T03:12:28.161Z,9.41
2023-02-23T03:13:28.108Z,9.38
2023-02-23T03:14:28.094Z,9.42
2023-02-23T03:15:28.102Z,9.41
2023-02-23T03:16:28.070Z,9.40
2023-02-23T03:17:28.064Z,9.41
2023-02-23T03:18:28.077Z,9.41
2023-02-23T03:19:28.043Z,9.40
2023-02-23T03:20:28.048Z,9.40
2023-02-23T03:21:28.007Z,9.40
2023-02-23T03:22:28.038Z,9.40
2023-02-23T03:23:27.994Z,9.38
2023-02-23T03:24:27.992Z,9.38
2023-02-23T03:25:27.958Z,9.38
2023-02-23T03:26:27.961Z,9.40
2023-02-23T03:27:27.909Z,9.40
2023-02-23T03:28:27.906Z,9.40
2023-02-23T03:29:27.916Z,9.37
2023-02-23T03:30:27.951Z,9.37
2023-02-23T03:31:27.924Z,9.37
2023-02-23T03:32:28.006Z,9.37
2023-02-23T03:33:27.874Z,9.37
2023-02-23T03:34:27.879Z,9.37
2023-02-23T03:35:27.846Z,9.32
2023-02-23T03:36:27.825Z,9.32
2023-02-23T03:37:27.777Z,9.34
2023-02-23T03:38:27.836Z,9.34
2023-02-23T03:39:27.750Z,9.32
2023-02-23T03:40:27.774Z,9.30
2023-02-23T03:41:27.728Z,9.31
2023-02-23T03:42:27.738Z,9.31
2023-02-23T03:43:27.719Z,9.31
2023-02-23T03:44:27.741Z,9.31
2023-02-23T03:45:27.712Z,9.31
2023-02-23T03:46:27.674Z,9.31
2023-02-23T03:47:27.705Z,9.30
2023-02-23T03:48:27.670Z,9.30
2023-02-23T03:49:27.697Z,9.27
2023-02-23T03:50:27.649Z,9.31
2023-02-23T03:51:27.623Z,9.30
2023-02-23T03:52:27.628Z,9.27
2023-02-23T03:53:27.569Z,9.30
2023-02-23T03:54:27.672Z,9.27
2023-02-23T03:55:27.568Z,9.27
2023-02-23T03:56:27.543Z,9.27
2023-02-23T03:57:27.517Z,9.27
2023-02-23T03:58:27.581Z,9.27
2023-02-23T03:59:27.548Z,9.30
2023-02-23T04:00:27.518Z,9.30
2023-02-23T04:01:27.489Z,9.30
2023-02-23T04:02:27.489Z,9.27
2023-02-23T04:03:27.458Z,9.27
2023-02-23T04:04:27.465Z,9.27
2023-02-23T04:05:27.465Z,9.30
2023-02-23T04:06:27.409Z,9.30
2023-02-23T04:07:27.384Z,9.27
2023-02-23T04:08:27.383Z,9.27
2023-02-23T04:09:27.384Z,9.30
2023-02-23T04:10:27.385Z,9.30
2023-02-23T04:11:27.369Z,9.30
2023-02-23T04:12:27.354Z,9.27
2023-02-23T04:13:27.311Z,9.27
2023-02-23T04:14:27.328Z,9.27
2023-02-23T04:15:27.276Z,9.26
2023-02-23T04:16:27.317Z,9.27
2023-02-23T04:17:27.277Z,9.26
2023-02-23T04:18:27.276Z,9.26
2023-02-23T04:19:27.274Z,9.26
2023-02-23T04:20:27.257Z,9.26
2023-02-23T04:21:27.287Z,9.26
2023-02-23T04:22:27.196Z,9.26
2023-02-23T04:23:27.172Z,9.27
2023-02-23T04:24:27.232Z,9.26
2023-02-23T04:25:27.149Z,9.26
2023-02-23T04:26:27.151Z,9.24
2023-02-23T04:27:27.137Z,9.26
2023-02-23T04:28:27.109Z,9.26
2023-02-23T04:29:27.097Z,9.26
2023-02-23T04:30:27.108Z,9.27
2023-02-23T04:31:27.401Z,9.26
2023-02-23T04:32:27.233Z,9.24
2023-02-23T04:33:27.080Z,9.24
2023-02-23T04:34:27.098Z,9.24
2023-02-23T04:35:27.034Z,9.24
2023-02-23T04:36:27.024Z,9.26
2023-02-23T04:37:27.013Z,9.24
2023-02-23T04:38:27.016Z,9.24
2023-02-23T04:39:27.016Z,9.26
2023-02-23T04:40:26.966Z,9.26
2023-02-23T04:41:26.937Z,9.24
2023-02-23T04:42:26.936Z,9.24
2023-02-23T04:43:26.917Z,9.24
2023-02-23T04:44:26.963Z,9.23
2023-02-23T04:45:26.915Z,9.22
2023-02-23T04:46:26.918Z,9.22
2023-02-23T04:47:26.882Z,9.22
2023-02-23T04:48:26.888Z,9.23
2023-02-23T04:49:26.869Z,9.22
2023-02-23T04:50:26.842Z,9.24
2023-02-23T04:51:26.833Z,9.22
2023-02-23T04:52:26.808Z,9.23
2023-02-23T04:53:26.826Z,9.22
2023-02-23T04:54:26.806Z,9.23
2023-02-23T04:55:26.757Z,9.22
2023-02-23T04:56:26.756Z,9.20
2023-02-23T04:57:26.725Z,9.20
2023-02-23T04:58:26.770Z,9.19
2023-02-23T04:59:26.746Z,9.19
2023-02-23T05:00:26.720Z,9.17
2023-02-23T05:01:26.741Z,9.16
2023-02-23T05:02:26.710Z,9.19
2023-02-23T05:03:26.682Z,9.17
2023-02-23T05:04:26.679Z,9.17
2023-02-23T05:05:26.651Z,9.17
2023-02-23T05:06:26.614Z,9.17
2023-02-23T05:07:26.630Z,9.17
2023-02-23T05:08:26.621Z,9.19
2023-02-23T05:09:26.591Z,9.16
2023-02-23T05:10:26.621Z,9.13
2023-02-23T05:11:26.570Z,9.13
2023-02-23T05:12:26.547Z,9.13
2023-02-23T05:13:26.515Z,9.15
2023-02-23T05:14:26.570Z,9.15
2023-02-23T05:15:26.520Z,9.15
2023-02-23T05:16:26.513Z,9.15
2023-02-23T05:17:26.465Z,9.15
2023-02-23T05:18:26.494Z,9.15
2023-02-23T05:19:26.465Z,9.15
2023-02-23T05:20:26.452Z,9.13
2023-02-23T05:21:26.502Z,9.16
2023-02-23T05:22:26.438Z,9.15
2023-02-23T05:23:26.394Z,9.13
2023-02-23T05:24:26.396Z,9.15
2023-02-23T05:25:26.388Z,9.15
2023-02-23T05:26:26.392Z,9.15
2023-02-23T05:27:26.372Z,9.15
2023-02-23T05:28:26.370Z,9.12
2023-02-23T05:29:26.345Z,9.13
2023-02-23T05:30:26.347Z,9.13
2023-02-23T05:31:26.575Z,9.12
2023-02-23T05:32:26.369Z,9.10
2023-02-23T05:33:26.318Z,9.10
2023-02-23T05:34:26.262Z,9.12
2023-02-23T05:35:26.309Z,9.12
2023-02-23T05:36:26.257Z,9.12
2023-02-23T05:37:26.207Z,9.12
2023-02-23T05:38:26.307Z,9.12
2023-02-23T05:39:26.186Z,9.15
2023-02-23T05:40:26.216Z,9.13
2023-02-23T05:41:26.173Z,9.15
2023-02-23T05:42:26.173Z,9.15
2023-02-23T05:43:26.116Z,9.13
2023-02-23T05:44:26.184Z,9.13
2023-02-23T05:45:26.095Z,9.13
2023-02-23T05:46:26.125Z,9.12
2023-02-23T05:47:26.075Z,9.13
2023-02-23T05:48:26.065Z,9.12
2023-02-23T05:49:26.060Z,9.10
2023-02-23T05:50:26.115Z,9.08
2023-02-23T05:51:26.051Z,9.06
2023-02-23T05:52:26.017Z,9.08
2023-02-23T05:53:26.019Z,9.08
2023-02-23T05:54:26.018Z,9.06
2023-02-23T05:55:25.990Z,9.08
2023-02-23T05:56:26.020Z,9.03
2023-02-23T05:57:25.981Z,9.06
2023-02-23T05:58:25.962Z,9.03
2023-02-23T05:59:25.940Z,9.04
2023-02-23T06:00:25.939Z,9.04
2023-02-23T06:01:25.897Z,9.06
2023-02-23T06:02:25.988Z,9.04
2023-02-23T06:03:25.925Z,9.06
2023-02-23T06:04:25.862Z,9.08
2023-02-23T06:05:25.851Z,9.06
2023-02-23T06:06:25.828Z,9.08
2023-02-23T06:07:25.821Z,9.08
2023-02-23T06:08:25.866Z,9.06
2023-02-23T06:09:25.799Z,9.06
2023-02-23T06:10:25.795Z,9.06
2023-02-23T06:11:25.799Z,9.06
2023-02-23T06:12:25.779Z,9.04
2023-02-23T06:13:25.726Z,9.04
2023-02-23T06:14:25.788Z,9.04
2023-02-23T06:15:25.717Z,9.04
2023-02-23T06:16:25.818Z,9.04
2023-02-23T06:17:25.686Z,9.04
2023-02-23T06:18:25.693Z,9.04
2023-02-23T06:19:25.660Z,9.03
2023-02-23T06:20:25.686Z,9.04
2023-02-23T06:21:25.629Z,9.03
2023-02-23T06:22:25.655Z,9.03
2023-02-23T06:23:25.632Z,9.04
2023-02-23T06:24:25.628Z,9.04
2023-02-23T06:25:25.606Z,9.04
2023-02-23T06:26:25.642Z,9.04
2023-02-23T06:27:25.569Z,9.04
2023-02-23T06:28:25.663Z,9.04
2023-02-23T06:29:25.527Z,9.04
2023-02-23T06:30:25.555Z,9.04
2023-02-23T06:31:25.581Z,9.04
2023-02-23T06:32:25.593Z,9.03
2023-02-23T06:33:25.514Z,9.00
2023-02-23T06:34:25.508Z,9.00
2023-02-23T06:35:25.432Z,9.00
2023-02-23T06:36:25.469Z,9.00
2023-02-23T06:37:25.448Z,8.96
2023-02-23T06:38:25.441Z,8.96
2023-02-23T06:39:25.388Z,8.96
2023-02-23T06:40:25.423Z,8.94
2023-02-23T06:41:25.395Z,8.96
2023-02-23T06:42:25.369Z,8.97
2023-02-23T06:43:25.367Z,8.96
2023-02-23T06:44:25.381Z,8.97
2023-02-23T06:45:25.345Z,8.97
2023-02-23T06:46:25.348Z,8.97
2023-02-23T06:47:25.306Z,8.97
2023-02-23T06:48:25.288Z,8.98
2023-02-23T06:49:25.294Z,8.96
2023-02-23T06:50:25.247Z,8.98
2023-02-23T06:51:25.246Z,9.00
2023-02-23T06:52:25.217Z,9.00
2023-02-23T06:53:25.227Z,8.98
2023-02-23T06:54:25.247Z,8.98
2023-02-23T06:55:25.237Z,9.00
2023-02-23T06:56:25.167Z,8.98
2023-02-23T06:57:25.222Z,8.98
2023-02-23T06:58:25.176Z,8.98
2023-02-23T06:59:25.141Z,9.00
2023-02-23T07:00:25.234Z,9.00
2023-02-23T07:01:25.228Z,9.00
2023-02-23T07:02:25.239Z,9.00
2023-02-23T07:03:25.125Z,9.00
2023-02-23T07:04:25.111Z,9.00
2023-02-23T07:05:25.090Z,8.98
2023-02-23T07:06:25.050Z,9.00
2023-02-23T07:07:25.072Z,9.00
2023-02-23T07:08:25.010Z,9.00
2023-02-23T07:09:25.044Z,8.98
2023-02-23T07:10:24.977Z,9.00
2023-02-23T07:11:24.971Z,9.00
2023-02-23T07:12:24.960Z,9.00
2023-02-23T07:13:24.986Z,8.98
2023-02-23T07:14:26.944Z,9.00
2023-02-23T07:15:24.956Z,8.98
2023-02-23T07:16:25.020Z,8.96
2023-02-23T07:17:24.927Z,8.96
2023-02-23T07:18:24.912Z,8.97
2023-02-23T07:19:24.869Z,8.98
2023-02-23T07:20:24.847Z,8.98
2023-02-23T07:21:24.886Z,8.97
2023-02-23T07:22:24.858Z,9.00
2023-02-23T07:23:24.817Z,9.00
2023-02-23T07:24:24.841Z,9.00
2023-02-23T07:25:24.785Z,8.98
2023-02-23T07:26:24.793Z,9.01
2023-02-23T07:27:24.818Z,9.01
2023-02-23T07:28:24.754Z,8.98
2023-02-23T07:29:24.737Z,9.00
2023-02-23T07:30:24.758Z,9.00
2023-02-23T07:31:24.776Z,8.98
2023-02-23T07:32:24.927Z,8.98
2023-02-23T07:33:24.753Z,8.97
2023-02-23T07:34:24.684Z,8.98
2023-02-23T07:35:24.739Z,8.98
2023-02-23T07:36:24.661Z,8.98
2023-02-23T07:37:24.643Z,9.00
2023-02-23T07:38:24.629Z,9.01
2023-02-23T07:39:24.606Z,9.01
2023-02-23T07:40:24.616Z,9.01
2023-02-23T07:41:24.611Z,8.98
2023-02-23T07:42:24.584Z,8.97
2023-02-23T07:43:24.567Z,8.96
2023-02-23T07:44:24.563Z,8.97
2023-02-23T07:45:24.545Z,8.97
2023-02-23T07:46:24.518Z,9.00
2023-02-23T07:47:24.541Z,9.01
2023-02-23T07:48:24.515Z,9.01
2023-02-23T07:49:24.546Z,9.01
2023-02-23T07:50:24.488Z,9.04
2023-02-23T07:51:24.458Z,9.03
2023-02-23T07:52:24.463Z,9.01
2023-02-23T07:53:24.428Z,9.01
2023-02-23T07:54:24.429Z,9.03
2023-02-23T07:55:24.411Z,9.03
2023-02-23T07:56:24.409Z,9.04
2023-02-23T07:57:25.061Z,9.04
2023-02-23T07:58:24.360Z,9.04
2023-02-23T07:59:24.399Z,9.03
2023-02-23T08:00:24.359Z,9.04
2023-02-23T08:01:24.405Z,9.03
2023-02-23T08:02:24.330Z,9.03
2023-02-23T08:03:24.297Z,9.03
2023-02-23T08:04:24.324Z,9.03
2023-02-23T08:05:26.404Z,9.03
2023-02-23T08:06:24.352Z,9.03
2023-02-23T08:07:24.288Z,9.03
2023-02-23T08:08:24.260Z,9.01
2023-02-23T08:09:24.247Z,9.06
2023-02-23T08:10:24.325Z,9.04
2023-02-23T08:11:24.223Z,9.06
2023-02-23T08:12:24.214Z,9.06
2023-02-23T08:13:24.212Z,9.08
2023-02-23T08:14:24.294Z,9.06
2023-02-23T08:15:24.160Z,9.04
2023-02-23T08:16:24.181Z,9.06
2023-02-23T08:17:24.147Z,9.04
2023-02-23T08:18:24.171Z,9.04
2023-02-23T08:19:24.143Z,9.01
2023-02-23T08:20:24.092Z,9.01
2023-02-23T08:21:24.091Z,9.01
2023-02-23T08:22:24.074Z,9.01
2023-02-23T08:23:24.060Z,9.00
2023-02-23T08:24:24.080Z,9.01
2023-02-23T08:25:24.039Z,9.03
2023-02-23T08:26:24.012Z,9.00
2023-02-23T08:27:24.016Z,9.01
2023-02-23T08:28:23.965Z,9.01
2023-02-23T08:29:23.979Z,9.00
2023-02-23T08:30:23.985Z,9.00
2023-02-23T08:31:25.253Z,9.01
2023-02-23T08:32:23.955Z,9.01
2023-02-23T08:33:23.929Z,9.01
2023-02-23T08:34:23.905Z,9.00
2023-02-23T08:35:23.921Z,9.01
2023-02-23T08:36:23.971Z,9.03
2023-02-23T08:37:23.895Z,9.03
2023-02-23T08:38:23.839Z,9.03
2023-02-23T08:39:23.847Z,9.01
2023-02-23T08:40:23.805Z,9.00
2023-02-23T08:41:23.863Z,9.00
2023-02-23T08:42:23.793Z,9.00
2023-02-23T08:43:23.780Z,8.96
2023-02-23T08:44:23.783Z,8.94
2023-02-23T08:45:23.760Z,8.93
2023-02-23T08:46:23.827Z,8.93
2023-02-23T08:47:23.736Z,8.93
2023-02-23T08:48:23.722Z,8.94
2023-02-23T08:49:23.730Z,8.93
2023-02-23T08:50:25.292Z,8.93
2023-02-23T08:51:24.405Z,8.93
2023-02-23T08:52:23.637Z,8.93
2023-02-23T08:53:23.647Z,8.93
2023-02-23T08:54:23.654Z,8.94
2023-02-23T08:55:23.692Z,8.94
2023-02-23T08:56:23.641Z,8.93
2023-02-23T08:57:23.638Z,8.94
2023-02-23T08:58:23.565Z,8.94
2023-02-23T08:59:23.569Z,8.96
2023-02-23T09:00:32.821Z,8.96
2023-02-23T09:01:23.637Z,8.98
2023-02-23T09:02:23.521Z,8.98
2023-02-23T09:03:23.528Z,9.00
2023-02-23T09:04:23.508Z,9.00
2023-02-23T09:05:23.552Z,9.01
2023-02-23T09:06:23.653Z,9.00
2023-02-23T09:07:23.496Z,9.00
2023-02-23T09:08:23.525Z,8.98
2023-02-23T09:09:23.429Z,9.01
2023-02-23T09:10:23.464Z,9.01
2023-02-23T09:11:23.464Z,9.03
2023-02-23T09:12:23.392Z,9.04
2023-02-23T09:13:23.561Z,9.04
2023-02-23T09:14:23.367Z,9.04
2023-02-23T09:15:24.143Z,9.04
2023-02-23T09:16:23.376Z,9.03
2023-02-23T09:17:23.383Z,9.01
2023-02-23T09:18:23.322Z,9.01
2023-02-23T09:19:23.322Z,9.01
2023-02-23T09:20:23.341Z,9.00
2023-02-23T09:21:23.284Z,9.01
2023-02-23T09:22:23.332Z,9.03
2023-02-23T09:23:23.327Z,9.04
2023-02-23T09:24:23.242Z,9.04
2023-02-23T09:25:23.251Z,9.04
2023-02-23T09:26:23.241Z,9.03
2023-02-23T09:27:23.216Z,9.04
2023-02-23T09:28:23.212Z,9.03
2023-02-23T09:29:23.217Z,9.06
2023-02-23T09:30:23.195Z,9.08
2023-02-23T09:31:23.729Z,9.06
2023-02-23T09:32:23.361Z,9.04
2023-02-23T09:33:23.127Z,9.04
2023-02-23T09:34:23.169Z,9.04
2023-02-23T09:35:23.095Z,9.03
2023-02-23T09:36:23.076Z,9.04
2023-02-23T09:37:23.097Z,9.04
2023-02-23T09:38:23.081Z,9.04
2023-02-23T09:39:37.002Z,9.04
2023-02-23T09:40:24.106Z,9.04
2023-02-23T09:41:23.039Z,9.04
2023-02-23T09:42:22.993Z,9.08
2023-02-23T09:43:23.014Z,9.06
2023-02-23T09:44:22.973Z,9.08
2023-02-23T09:45:22.999Z,9.08
2023-02-23T09:46:22.989Z,9.10
2023-02-23T09:47:22.990Z,9.10
2023-02-23T09:48:22.922Z,9.10
2023-02-23T09:49:22.950Z,9.10
2023-02-23T09:50:22.907Z,9.10
2023-02-23T09:51:22.950Z,9.10
2023-02-23T09:52:22.852Z,9.10
2023-02-23T09:53:22.885Z,9.10
2023-02-23T09:54:22.889Z,9.10
2023-02-23T09:55:22.883Z,9.08
2023-02-23T09:56:22.823Z,9.06
2023-02-23T09:57:22.857Z,9.06
2023-02-23T09:58:22.822Z,9.06
2023-02-23T09:59:22.941Z,9.06
2023-02-23T10:00:22.752Z,9.06
2023-02-23T10:01:23.108Z,9.06
2023-02-23T10:02:22.744Z,9.12
2023-02-23T10:03:22.752Z,9.12
2023-02-23T10:04:22.730Z,9.13
2023-02-23T10:05:22.714Z,9.10
2023-02-23T10:06:22.710Z,9.10
2023-02-23T10:07:22.753Z,9.10
2023-02-23T10:08:22.655Z,9.10
2023-02-23T10:09:22.683Z,9.08
2023-02-23T10:10:22.692Z,9.06
2023-02-23T10:11:22.680Z,9.04
2023-02-23T10:12:22.594Z,9.04
2023-02-23T10:13:22.638Z,9.03
2023-02-23T10:14:23.514Z,9.03
2023-02-23T10:15:22.647Z,9.01
2023-02-23T10:16:22.564Z,9.01
2023-02-23T10:17:22.580Z,9.00
2023-02-23T10:18:22.553Z,9.00
2023-02-23T10:19:22.529Z,8.98
2023-02-23T10:20:22.530Z,9.01
2023-02-23T10:21:22.776Z,9.03
2023-02-23T10:22:22.514Z,9.00
2023-02-23T10:23:22.513Z,9.01
2023-02-23T10:24:22.488Z,9.03
2023-02-23T10:25:22.433Z,9.04
2023-02-23T10:26:22.433Z,9.06
2023-02-23T10:27:22.457Z,9.04
2023-02-23T10:28:22.412Z,9.08
2023-02-23T10:29:22.431Z,9.06
2023-02-23T10:30:22.386Z,9.12
2023-02-23T10:31:22.758Z,9.10
2023-02-23T10:32:22.556Z,9.13
2023-02-23T10:33:22.347Z,9.15
2023-02-23T10:34:23.589Z,9.15
2023-02-23T10:35:22.337Z,9.17
2023-02-23T10:36:22.319Z,9.17
2023-02-23T10:37:22.323Z,9.19
2023-02-23T10:38:22.296Z,9.19
2023-02-23T10:39:22.282Z,9.20
2023-02-23T10:40:22.247Z,9.20
2023-02-23T10:41:22.353Z,9.22
2023-02-23T10:42:22.199Z,9.20
2023-02-23T10:43:22.222Z,9.20
2023-02-23T10:44:22.193Z,9.20
2023-02-23T10:45:22.198Z,9.20
2023-02-23T10:46:22.243Z,9.22
2023-02-23T10:47:22.150Z,9.20
2023-02-23T10:48:22.162Z,9.20
2023-02-23T10:49:22.144Z,9.20
2023-02-23T10:50:22.104Z,9.17
2023-02-23T10:51:22.378Z,9.15
2023-02-23T10:52:22.077Z,9.15
2023-02-23T10:53:22.072Z,9.16
2023-02-23T10:54:22.071Z,9.16
2023-02-23T10:55:22.095Z,9.16
2023-02-23T10:56:22.060Z,9.16
2023-02-23T10:57:22.033Z,9.16
2023-02-23T10:58:21.995Z,9.16
2023-02-23T10:59:21.985Z,9.17
2023-02-23T11:00:22.030Z,9.19
2023-02-23T11:01:22.280Z,9.20
2023-02-23T11:02:22.028Z,9.20
2023-02-23T11:03:21.932Z,9.16
2023-02-23T11:04:21.994Z,9.15
2023-02-23T11:05:21.900Z,9.12
2023-02-23T11:06:21.940Z,9.10
2023-02-23T11:07:21.883Z,9.08
2023-02-23T11:08:21.898Z,9.10
2023-02-23T11:09:26.947Z,9.10
2023-02-23T11:10:22.900Z,9.12
2023-02-23T11:11:22.198Z,9.08
2023-02-23T11:12:22.296Z,9.08
2023-02-23T11:13:21.827Z,9.08
2023-02-23T11:14:21.801Z,9.10
2023-02-23T11:15:21.790Z,9.06
2023-02-23T11:16:21.830Z,9.12
2023-02-23T11:17:21.774Z,9.12
2023-02-23T11:18:21.794Z,9.12
2023-02-23T11:19:21.744Z,9.12
2023-02-23T11:20:21.728Z,9.10
2023-02-23T11:21:21.963Z,9.08
2023-02-23T11:22:21.713Z,9.10
2023-02-23T11:23:21.677Z,9.12
2023-02-23T11:24:21.693Z,9.08
2023-02-23T11:25:21.643Z,9.06
2023-02-23T11:26:21.656Z,9.04
2023-02-23T11:27:21.643Z,9.03
2023-02-23T11:28:21.637Z,9.04
2023-02-23T11:29:21.620Z,9.01
2023-02-23T11:30:22.611Z,9.00
2023-02-23T11:31:22.153Z,9.01
2023-02-23T11:32:21.749Z,9.01
2023-02-23T11:33:21.585Z,9.03
2023-02-23T11:34:21.533Z,9.04
2023-02-23T11:35:21.517Z,9.01
2023-02-23T11:36:21.546Z,8.97
2023-02-23T11:37:21.516Z,8.98
2023-02-23T11:38:21.526Z,8.96
2023-02-23T11:39:21.482Z,8.98
2023-02-23T11:40:21.468Z,8.98
2023-02-23T11:41:21.624Z,8.97
2023-02-23T11:42:21.439Z,8.98
2023-02-23T11:43:21.402Z,8.98
2023-02-23T11:44:21.426Z,9.01
2023-02-23T11:45:21.371Z,9.01
2023-02-23T11:46:22.034Z,9.03
2023-02-23T11:47:21.379Z,9.04
2023-02-23T11:48:21.345Z,9.06
2023-02-23T11:49:21.355Z,9.08
2023-02-23T11:50:21.323Z,9.10
2023-02-23T11:51:21.303Z,9.08
2023-02-23T11:52:21.323Z,9.10
2023-02-23T11:53:21.295Z,9.10
2023-02-23T11:54:21.318Z,9.10
2023-02-23T11:55:21.269Z,9.10
2023-02-23T11:56:21.569Z,9.10
2023-02-23T11:57:21.224Z,9.13
2023-02-23T11:58:21.292Z,9.13
2023-02-23T11:59:21.253Z,9.13
2023-02-23T12:00:21.240Z,9.12
2023-02-23T12:01:21.215Z,9.12
2023-02-23T12:02:21.247Z,9.12
2023-02-23T12:03:21.227Z,9.12
2023-02-23T12:04:21.195Z,9.12
2023-02-23T12:05:21.119Z,9.12
2023-02-23T12:06:21.459Z,9.13
2023-02-23T12:07:21.111Z,9.12
2023-02-23T12:08:21.141Z,9.12
2023-02-23T12:09:21.098Z,9.10
2023-02-23T12:10:21.202Z,9.10
2023-02-23T12:11:21.033Z,9.12
2023-02-23T12:12:21.061Z,9.13
2023-02-23T12:13:21.060Z,9.15
2023-02-23T12:14:21.022Z,9.15
2023-02-23T12:15:21.028Z,9.12
2023-02-23T12:16:21.459Z,9.10
2023-02-23T12:17:21.033Z,9.08
2023-02-23T12:18:21.034Z,9.10
2023-02-23T12:19:20.931Z,9.10
2023-02-23T12:20:20.959Z,9.12
2023-02-23T12:21:20.913Z,9.10
2023-02-23T12:22:20.948Z,9.08
2023-02-23T12:23:20.928Z,9.06
2023-02-23T12:24:20.900Z,9.03
2023-02-23T12:25:20.851Z,9.03
2023-02-23T12:26:21.258Z,9.06
2023-02-23T12:27:20.842Z,9.06
2023-02-23T12:28:20.851Z,9.06
2023-02-23T12:29:20.861Z,9.06
2023-02-23T12:30:20.864Z,9.06
2023-02-23T12:31:20.833Z,9.04
2023-02-23T12:32:20.981Z,9.04
2023-02-23T12:33:20.809Z,9.04
2023-02-23T12:34:20.747Z,9.04
2023-02-23T12:35:20.751Z,9.03
2023-02-23T12:36:21.085Z,9.08
2023-02-23T12:37:20.724Z,9.08
2023-02-23T12:38:20.767Z,9.04
2023-02-23T12:39:20.678Z,9.08
2023-02-23T12:40:20.692Z,9.08
2023-02-23T12:41:20.670Z,9.12
2023-02-23T12:42:20.663Z,9.12
2023-02-23T12:43:20.652Z,9.10
2023-02-23T12:44:20.695Z,9.10
2023-02-23T12:45:20.589Z,9.08
2023-02-23T12:46:21.088Z,9.04
2023-02-23T12:47:20.657Z,9.04
2023-02-23T12:48:20.673Z,9.04
2023-02-23T12:49:20.570Z,9.04
2023-02-23T12:50:20.602Z,9.04
2023-02-23T12:51:20.505Z,9.04
2023-02-23T12:52:20.574Z,9.03
2023-02-23T12:53:20.565Z,9.03
2023-02-23T12:54:20.516Z,9.00
2023-02-23T12:55:20.464Z,9.00
2023-02-23T12:56:20.760Z,9.03
2023-02-23T12:57:20.498Z,9.03
2023-02-23T12:58:20.484Z,9.04
2023-02-23T12:59:20.439Z,9.08
2023-02-23T13:00:20.433Z,9.08
2023-02-23T13:01:20.856Z,9.06
2023-02-23T13:02:20.514Z,9.12
2023-02-23T13:03:20.362Z,9.08
2023-02-23T13:04:20.364Z,9.01
2023-02-23T13:05:20.371Z,9.00
2023-02-23T13:06:20.366Z,8.97
2023-02-23T13:07:20.346Z,8.97
2023-02-23T13:08:20.336Z,8.91
2023-02-23T13:09:20.304Z,8.91
2023-02-23T13:10:20.300Z,8.89
2023-02-23T13:11:20.654Z,8.93
2023-02-23T13:12:20.295Z,8.91
2023-02-23T13:13:20.270Z,8.93
2023-02-23T13:14:20.299Z,8.91
2023-02-23T13:15:20.245Z,8.88
2023-02-23T13:16:20.337Z,8.83
2023-02-23T13:17:20.249Z,8.82
2023-02-23T13:18:20.200Z,8.79
2023-02-23T13:19:20.205Z,8.78
2023-02-23T13:20:20.165Z,8.79
2023-02-23T13:21:20.492Z,8.79
2023-02-23T13:22:20.140Z,8.76